Cape Hatteras, North Carolina
Current Conditions -  °F | °C
As of 12:51 AM on Wednesday 22 Oct 2014 (Local Time) from KHSE Reporting Station
Clear Clear  
Wind Chill: 19°   Ceiling: Unl
Heat Index: 19°   Visibility: 10mi
Dew Point: 17°   Wind: 8mph
Humidity: 87%   Direction: 280°W
Pressure: 29.81"   Gusts: NA
Location:  35.23°N, 75.62°W
Report Text: KHSE 220451Z AUTO 28007KT 10SM CLR 19/17 A2981 RMK AO2 SLP095 T01890167 402220178 TSNO
Loading
Personal Weather Stations






























Interactive Weather Map
Tropical Storm Tracking
New forecast layout! Learn more

10-Day Weather Forecast

Advertisements
Track Severe Weather on mobile